Terminal Aerodrome Forecast
Issued by NWS Louisville, KY

Home | Current Version | Previous Version | Text Only | Print | Product List | Glossary On
Versions: 1 2 3 4 5 6 7 8 9 10 11 12 13 14 15 16 17 18 19 20
000
FTUS43 KLMK 152334
TAFLEX
TAF
KLEX 152334Z 1600/1624 22016G26KT P6SM OVC035 WS020/24045KT
     FM160200 21017G30KT P6SM OVC025 WS020/25055KT
     FM160800 24017G27KT 3SM SHRA OVC015 WS020/25050KT
     FM161100 30011G22KT 3SM SHRA BR OVC010
     FM162000 35009KT P6SM BKN025=

USA.gov is the U.S. government's official web portal to all federal, state and local government web resources and services.